Alexandria, Romania

7:15 PM EEST on August 28, 2015 (GMT +0300)
Rasuceni | | Change Station
CLOSE
Current Station
Personal Weather Station
Location: R%u0103suceni,
Elevation: 217 ft
Nearby Weather Stations

Elev 217 ft 44.10 °N, 25.67 °E | Updated 19 seconds ago

Clear
Clear
84.6 °F
Feels Like 83 °F
N
0.1
Wind Variable Wind from East
Gusts 0.4 mph

Today
High -- | Low -- °F
--% Chance of Precip.
Yesterday
High -- | Low -- °F
Precip. -- in
6:36 AM 8:02 PM
Waxing Gibbous, 98% visible
Pressure 30.12 in
Visibility -9999.0 miles
Clouds
Heat Index 83 °F
Dew Point 55 °F
Humidity 36%
Rainfall 0.00 in
Snow Depth Not available.
UV Not available.
Pollen Not available.
Air Quality Not available.
Flu Activity Not available.
METAR LRBS 281600Z 27004KT CAVOK 31/11 Q1020 NOSIG
Pressure 30.12 in
Visibility -9999.0 miles
Clouds
Heat Index 83 °F
Dew Point 55 °F
Humidity 36%
Rainfall 0.00 in
Snow Depth Not available.
UV Not available.
Pollen Not available.
Air Quality Not available.
Flu Activity Not available.
METAR LRBS 281600Z 27004KT CAVOK 31/11 Q1020 NOSIG

10-Day Weather Forecast

×

Almanac

Astronomy

Aug. 28, 2015 Rise Set
Actual Time
Civil Twilight
Nautical Twilight
Astronomical Twilight
Moon
Length of Visible Light
Length of Day
Tomorrow will be .
, % of the Moon is Illuminated

Today's Extremes

Country Highs Country Lows

Community

WunderPhotos

Upload Photos

1,850,414 photos uploaded!

WunderBlogs® & News

Nearby

Air Quality

  Air Quality AQ Index Pollutant
Not available.

Snow Depth

Station Depth Elevation

Earthquake Activity

City Distance Mag. Time & Date
Minimum magnitude displayed is 2.5.

Coastal Water Temperatures

Place Temperature

Stations

Nearby Weather Stations

Station Location Temp. Windchill Dew Point Humidity Wind Precip. Elev Updated Type